Time;durP1;ratioP1;P1;durP2;ratioP2;P2;SDS_P1;SDS_P2;PMS_P1;PMS_P2;Temp;Humidity;BMP_temperature;BMP_pressure;BME280_temperature;BME280_humidity;BME280_pressure;Samples;Min_cycle;Max_cycle;Signal;HPM_P1;HPM_P2
2021/12/19 04:01:32;;;;;;;15.50;7.93;;;4.50;83.60;;;;;;5566832;23;20497;-66
2021/12/19 04:04:00;;;;;;;13.03;8.67;;;4.50;83.50;;;;;;4976463;28;20509;-66
2021/12/19 04:06:26;;;;;;;16.73;9.07;;;4.60;83.40;;;;;;4976335;28;20454;-67
2021/12/19 04:08:56;;;;;;;9.67;7.20;;;4.60;83.10;;;;;;4976243;28;20933;-64
2021/12/19 04:11:24;;;;;;;9.40;6.90;;;4.60;83.00;;;;;;4976583;28;20481;-64
2021/12/19 04:16:20;;;;;;;10.20;7.23;;;4.70;83.00;;;;;;4937051;29;20472;-74
2021/12/19 04:18:48;;;;;;;10.00;6.77;;;4.70;82.70;;;;;;4937252;29;21021;-74
2021/12/19 04:21:15;;;;;;;10.30;5.83;;;4.70;82.20;;;;;;4937355;29;20452;-74
2021/12/19 04:23:42;;;;;;;10.07;7.00;;;4.60;82.10;;;;;;4937524;29;20451;-74
2021/12/19 04:26:09;;;;;;;9.70;7.90;;;4.70;82.30;;;;;;4955512;29;20474;-74
2021/12/19 04:28:36;;;;;;;11.93;7.87;;;4.70;82.40;;;;;;4956589;28;20495;-74
2021/12/19 04:31:04;;;;;;;14.00;7.70;;;4.60;82.10;;;;;;4956218;28;20870;-73
2021/12/19 04:33:31;;;;;;;10.27;6.37;;;4.60;82.00;;;;;;4955518;28;20451;-76
2021/12/19 04:36:02;;;;;;;17.10;6.93;;;4.40;82.40;;;;;;4956376;28;20527;-74
2021/12/19 04:39:15;;;;;;;9.40;7.47;;;4.40;82.30;;;;;;4956358;28;20475;-74
2021/12/19 04:56:12;;;;;;;10.60;5.60;;;3.40;85.30;;;;;;4956031;28;20546;-74
2021/12/19 04:58:56;;;;;;;9.30;6.40;;;3.30;85.60;;;;;;4955515;29;20478;-74
2021/12/19 05:01:57;;;;;;;12.20;6.70;;;3.00;86.40;;;;;;4956265;28;20439;-73
2021/12/19 05:04:51;;;;;;;10.60;6.10;;;3.10;86.70;;;;;;4956014;28;20478;-74
2021/12/19 05:15:35;;;;;;;8.97;5.07;;;3.70;84.90;;;;;;4955422;28;20462;-74
2021/12/19 05:18:06;;;;;;;10.60;7.60;;;3.80;84.40;;;;;;4955952;28;20459;-74
2021/12/19 05:20:34;;;;;;;9.63;6.17;;;3.90;83.60;;;;;;4955778;28;20502;-74
2021/12/19 05:23:07;;;;;;;11.33;6.03;;;3.80;83.70;;;;;;4955616;28;20447;-74
2021/12/19 05:25:35;;;;;;;9.87;6.00;;;3.90;83.60;;;;;;4955549;28;20477;-74
2021/12/19 05:28:03;;;;;;;8.00;5.50;;;4.00;83.30;;;;;;4956145;28;20874;-74
2021/12/19 05:30:30;;;;;;;7.73;5.70;;;4.10;82.80;;;;;;4955633;28;20454;-73
2021/12/19 05:32:59;;;;;;;11.10;7.07;;;4.10;82.80;;;;;;4955578;28;20443;-74
2021/12/19 05:35:43;;;;;;;8.07;4.80;;;4.20;82.60;;;;;;4955480;28;20522;-73
2021/12/19 05:46:24;;;;;;;8.13;5.17;;;3.80;82.60;;;;;;4956578;29;20410;-74
2021/12/19 05:48:53;;;;;;;7.50;5.67;;;3.60;83.00;;;;;;4955474;28;20493;-74
2021/12/19 05:51:19;;;;;;;6.57;4.50;;;3.50;83.60;;;;;;4955307;28;20455;-74
2021/12/19 05:53:46;;;;;;;8.30;5.53;;;3.70;83.90;;;;;;4955459;28;20447;-74
2021/12/19 05:56:14;;;;;;;5.20;4.57;;;3.80;83.70;;;;;;4955280;28;20470;-74
2021/12/19 05:58:42;;;;;;;6.70;5.00;;;3.80;83.30;;;;;;4955331;28;20486;-74
2021/12/19 06:01:09;;;;;;;6.57;4.60;;;3.80;83.40;;;;;;4955292;28;20501;-74
2021/12/19 06:03:35;;;;;;;7.83;5.90;;;3.80;83.00;;;;;;4955321;28;20583;-74
2021/12/19 06:06:02;;;;;;;8.53;5.40;;;3.90;83.00;;;;;;4954932;28;20889;-74
2021/12/19 06:08:29;;;;;;;8.43;6.30;;;3.80;82.50;;;;;;4955211;28;20451;-74
2021/12/19 06:10:56;;;;;;;9.20;4.70;;;3.80;82.70;;;;;;4955345;28;20451;-74
2021/12/19 06:13:24;;;;;;;12.37;6.63;;;3.80;82.70;;;;;;4955561;28;20446;-74
2021/12/19 06:15:53;;;;;;;9.87;6.40;;;3.80;82.80;;;;;;4954731;28;20975;-73
2021/12/19 06:18:20;;;;;;;11.13;6.10;;;3.90;82.80;;;;;;4955124;28;20886;-73
2021/12/19 06:20:48;;;;;;;6.70;5.60;;;3.70;82.70;;;;;;4955073;28;20851;-74
2021/12/19 06:23:15;;;;;;;8.80;5.97;;;3.60;83.40;;;;;;4955039;28;20878;-74
2021/12/19 06:25:45;;;;;;;6.83;4.87;;;3.80;83.50;;;;;;4954687;28;20897;-74
2021/12/19 06:28:12;;;;;;;8.23;6.40;;;3.90;83.30;;;;;;4954777;28;20911;-74
2021/12/19 06:30:40;;;;;;;7.07;5.37;;;3.90;82.90;;;;;;4954982;28;20826;-73
2021/12/19 06:33:07;;;;;;;8.90;6.07;;;3.70;82.80;;;;;;4954954;28;20447;-74
2021/12/19 06:35:34;;;;;;;7.67;5.23;;;3.80;83.00;;;;;;4955502;28;20479;-74
2021/12/19 06:38:01;;;;;;;7.90;4.50;;;3.80;82.90;;;;;;4954932;28;20802;-74
2021/12/19 06:40:28;;;;;;;7.30;5.33;;;3.90;83.10;;;;;;4955010;28;20497;-73
2021/12/19 06:42:55;;;;;;;6.83;5.43;;;4.00;82.90;;;;;;4954603;28;20817;-73
2021/12/19 06:45:22;;;;;;;7.07;5.23;;;4.00;82.90;;;;;;4954520;28;21049;-73
2021/12/19 06:47:51;;;;;;;7.40;5.17;;;4.00;82.30;;;;;;4954892;28;20455;-74
2021/12/19 06:50:19;;;;;;;9.03;6.30;;;4.10;82.60;;;;;;4954882;28;20524;-74
2021/12/19 06:52:46;;;;;;;8.73;5.67;;;3.70;82.80;;;;;;4954831;28;20447;-73
2021/12/19 06:55:15;;;;;;;12.33;6.50;;;3.60;83.10;;;;;;4954716;28;20475;-74
2021/12/19 06:57:41;;;;;;;9.00;6.33;;;3.60;83.30;;;;;;4957283;28;20875;-74
2021/12/19 07:00:11;;;;;;;5.13;3.87;;;3.70;83.10;;;;;;4958203;28;20537;-74
2021/12/19 07:02:38;;;;;;;6.20;4.37;;;3.60;83.00;;;;;;4958124;28;20939;-74
2021/12/19 07:05:07;;;;;;;9.80;4.20;;;3.60;83.10;;;;;;4958062;28;20586;-74
2021/12/19 07:07:33;;;;;;;6.43;4.50;;;3.60;83.20;;;;;;4958090;28;20505;-74
2021/12/19 07:10:00;;;;;;;7.80;3.73;;;3.70;83.20;;;;;;4957818;28;20943;-74
2021/12/19 07:12:27;;;;;;;6.83;4.23;;;3.80;83.10;;;;;;4958025;28;20450;-74
2021/12/19 07:14:54;;;;;;;7.73;4.27;;;3.80;82.80;;;;;;4957950;28;20561;-73
2021/12/19 07:17:21;;;;;;;7.30;4.33;;;3.80;83.30;;;;;;4957911;28;20811;-74
2021/12/19 07:19:48;;;;;;;5.37;3.73;;;3.90;83.10;;;;;;4957802;28;20487;-74
2021/12/19 07:22:16;;;;;;;18.83;6.07;;;4.00;82.40;;;;;;4957576;28;20943;-75
2021/12/19 07:24:44;;;;;;;11.33;6.33;;;4.00;82.10;;;;;;4957972;28;20538;-74
2021/12/19 07:27:11;;;;;;;7.53;4.17;;;4.00;81.90;;;;;;4957706;28;20454;-74
2021/12/19 07:29:37;;;;;;;6.07;4.60;;;4.00;81.80;;;;;;4957418;28;20961;-75
2021/12/19 07:32:05;;;;;;;7.57;4.90;;;4.00;81.90;;;;;;4957657;28;20458;-73
2021/12/19 07:34:34;;;;;;;9.33;5.20;;;3.90;81.80;;;;;;4957915;28;20475;-74
2021/12/19 07:37:01;;;;;;;11.50;5.87;;;3.90;82.30;;;;;;4957318;28;20539;-74
2021/12/19 07:39:40;;;;;;;8.23;5.30;;;3.80;81.80;;;;;;4957277;28;21032;-74
2021/12/19 07:42:10;;;;;;;6.47;5.37;;;3.70;82.90;;;;;;4957750;28;20537;-74
2021/12/19 07:44:38;;;;;;;5.53;3.70;;;3.80;83.00;;;;;;4957345;28;20467;-74
2021/12/19 07:47:07;;;;;;;8.17;6.10;;;3.80;83.00;;;;;;4957455;28;20451;-73
2021/12/19 07:49:33;;;;;;;7.40;4.40;;;3.80;82.70;;;;;;4957072;28;20998;-74
2021/12/19 07:52:00;;;;;;;6.70;4.60;;;3.90;82.70;;;;;;4957319;28;20450;-73
2021/12/19 07:54:28;;;;;;;4.60;3.40;;;4.00;82.60;;;;;;4956998;28;20466;-74
2021/12/19 07:56:55;;;;;;;5.73;4.00;;;4.10;82.50;;;;;;4957272;28;20451;-75
2021/12/19 07:59:22;;;;;;;4.87;2.93;;;4.20;82.10;;;;;;4956805;28;21002;-74
2021/12/19 08:01:49;;;;;;;4.80;2.90;;;4.20;81.80;;;;;;4957159;28;20447;-74
2021/12/19 08:04:16;;;;;;;3.90;2.37;;;4.30;81.60;;;;;;4957011;28;20573;-74
2021/12/19 08:06:43;;;;;;;3.70;2.13;;;4.30;81.10;;;;;;4957042;28;20511;-75
2021/12/19 08:09:12;;;;;;;3.93;2.00;;;4.30;80.80;;;;;;4956861;28;20498;-74
2021/12/19 08:11:42;;;;;;;3.13;1.63;;;4.30;80.50;;;;;;4956896;28;20863;-75
2021/12/19 08:14:11;;;;;;;3.80;2.30;;;4.30;80.50;;;;;;4956808;28;20868;-74
2021/12/19 08:16:38;;;;;;;3.50;2.03;;;4.30;80.80;;;;;;4956876;28;20431;-73
2021/12/19 08:19:06;;;;;;;2.87;1.33;;;4.20;80.40;;;;;;4956669;28;20885;-74
2021/12/19 08:21:33;;;;;;;3.37;2.13;;;4.10;80.30;;;;;;4957320;28;20861;-73
2021/12/19 08:24:01;;;;;;;3.07;1.60;;;4.00;80.50;;;;;;4956849;28;20450;-74
2021/12/19 08:26:28;;;;;;;4.57;2.07;;;3.80;81.60;;;;;;4957265;28;20455;-74
2021/12/19 08:28:57;;;;;;;3.87;2.10;;;3.90;82.00;;;;;;4956857;28;20463;-74
2021/12/19 08:31:24;;;;;;;3.90;2.03;;;3.70;82.30;;;;;;4956256;28;20886;-74
2021/12/19 08:33:50;;;;;;;3.50;1.80;;;3.80;82.50;;;;;;4956460;28;20482;-74
2021/12/19 08:36:17;;;;;;;3.40;2.00;;;3.60;82.10;;;;;;4956213;28;20960;-74
2021/12/19 08:38:46;;;;;;;3.30;2.20;;;3.60;82.90;;;;;;4956448;28;20497;-74
2021/12/19 08:41:12;;;;;;;6.37;2.50;;;3.60;82.70;;;;;;4956043;28;20491;-74
2021/12/19 08:43:39;;;;;;;3.80;2.20;;;3.70;82.60;;;;;;4956412;28;20506;-74
2021/12/19 08:46:09;;;;;;;4.40;2.67;;;3.60;82.80;;;;;;4956270;28;20471;-74
2021/12/19 08:48:36;;;;;;;3.53;2.40;;;3.80;82.60;;;;;;4955935;28;20903;-74
2021/12/19 08:51:03;;;;;;;3.60;2.30;;;3.80;82.30;;;;;;4956348;28;20498;-74
2021/12/19 08:53:30;;;;;;;3.93;2.33;;;3.90;82.10;;;;;;4956247;28;20506;-73
2021/12/19 08:55:56;;;;;;;7.63;2.17;;;4.10;82.00;;;;;;4956071;28;20545;-74
2021/12/19 08:58:23;;;;;;;3.93;2.17;;;3.90;81.60;;;;;;4956079;28;20447;-74
2021/12/19 09:00:50;;;;;;;3.47;2.50;;;3.90;81.60;;;;;;4955994;28;20534;-74
2021/12/19 09:03:18;;;;;;;3.23;1.77;;;3.90;81.80;;;;;;4955996;28;20506;-74
2021/12/19 09:05:45;;;;;;;3.50;2.03;;;3.90;81.70;;;;;;4955931;28;20466;-75
2021/12/19 09:08:11;;;;;;;3.50;2.10;;;3.90;82.40;;;;;;4956263;28;20439;-74
2021/12/19 09:10:39;;;;;;;3.00;1.90;;;3.80;82.50;;;;;;4955588;28;20857;-74
2021/12/19 09:13:05;;;;;;;4.23;2.70;;;3.70;82.40;;;;;;4955838;28;20510;-74
2021/12/19 09:15:32;;;;;;;3.97;2.27;;;3.80;82.60;;;;;;4955519;28;20554;-73
2021/12/19 09:17:59;;;;;;;3.60;2.50;;;3.60;83.00;;;;;;4955864;28;20455;-74
2021/12/19 09:20:27;;;;;;;5.70;2.33;;;3.60;83.60;;;;;;4955152;28;20489;-74
2021/12/19 09:22:53;;;;;;;4.80;3.20;;;3.80;83.40;;;;;;4955803;28;20458;-74
2021/12/19 09:25:21;;;;;;;4.10;3.03;;;3.90;83.30;;;;;;4955651;28;20463;-74
2021/12/19 09:27:48;;;;;;;3.87;2.13;;;3.90;83.30;;;;;;4956440;28;20451;-74
2021/12/19 09:30:15;;;;;;;5.70;2.17;;;3.90;83.30;;;;;;4955637;28;20443;-74
2021/12/19 09:32:42;;;;;;;3.40;2.00;;;4.00;82.80;;;;;;4955510;28;20443;-74
2021/12/19 09:35:10;;;;;;;3.10;1.50;;;4.00;82.60;;;;;;4955456;28;20530;-73
2021/12/19 09:37:38;;;;;;;3.33;2.00;;;4.10;82.50;;;;;;4955536;28;20459;-75
2021/12/19 09:40:06;;;;;;;4.13;2.00;;;4.00;82.40;;;;;;4955153;28;20541;-74
2021/12/19 09:42:35;;;;;;;3.00;1.43;;;4.00;82.10;;;;;;4955468;28;20451;-74
2021/12/19 09:45:03;;;;;;;3.50;1.90;;;4.00;82.70;;;;;;4955367;28;20506;-74
2021/12/19 09:47:29;;;;;;;3.30;1.90;;;4.10;82.80;;;;;;4955433;28;20825;-74
2021/12/19 09:49:58;;;;;;;3.43;2.07;;;4.20;82.30;;;;;;4955476;28;20459;-74
2021/12/19 09:52:25;;;;;;;3.20;1.47;;;4.20;82.20;;;;;;4955364;28;20447;-74
2021/12/19 09:54:53;;;;;;;3.40;1.73;;;4.20;82.00;;;;;;4955314;28;20467;-74
2021/12/19 09:57:20;;;;;;;3.60;1.97;;;3.90;82.50;;;;;;4955034;28;21017;-74
2021/12/19 09:59:46;;;;;;;4.00;2.00;;;3.90;83.30;;;;;;4955218;28;20459;-74
2021/12/19 10:02:13;;;;;;;4.03;2.10;;;4.00;83.30;;;;;;4955217;28;20453;-74
2021/12/19 10:04:41;;;;;;;3.73;2.00;;;3.90;83.40;;;;;;4954757;28;20978;-74
2021/12/19 10:07:11;;;;;;;2.90;1.43;;;3.80;83.40;;;;;;4955233;28;20856;-74
2021/12/19 10:09:50;;;;;;;3.90;2.10;;;3.80;83.90;;;;;;4955405;28;20447;-74
2021/12/19 10:12:48;;;;;;;3.53;1.93;;;3.90;84.10;;;;;;4954924;28;20830;-74
2021/12/19 10:15:18;;;;;;;3.27;1.80;;;4.10;84.40;;;;;;5086983;23;20492;-65
2021/12/19 10:17:45;;;;;;;4.17;1.80;;;4.30;83.80;;;;;;4994325;28;20433;-65
2021/12/19 10:20:14;;;;;;;3.50;2.03;;;4.40;83.10;;;;;;4994521;28;20489;-65
2021/12/19 10:22:43;;;;;;;3.57;2.20;;;4.20;82.20;;;;;;4994488;28;20449;-65
2021/12/19 10:25:18;;;;;;;3.70;2.00;;;4.10;82.70;;;;;;4994221;28;20501;-66
2021/12/19 10:27:47;;;;;;;3.23;1.70;;;4.20;83.00;;;;;;4994358;28;20528;-65
2021/12/19 10:30:23;;;;;;;3.87;2.30;;;4.20;82.40;;;;;;4994427;28;20449;-66
2021/12/19 10:32:55;;;;;;;3.10;1.67;;;4.30;82.80;;;;;;4997451;28;20483;-65
2021/12/19 10:35:25;;;;;;;3.10;1.50;;;4.30;82.60;;;;;;4998031;28;20477;-65
2021/12/19 10:37:52;;;;;;;4.20;2.33;;;4.40;82.60;;;;;;4998133;28;20453;-65
2021/12/19 10:40:20;;;;;;;3.17;1.40;;;4.40;82.40;;;;;;4997788;28;20493;-65
2021/12/19 10:42:53;;;;;;;4.47;2.23;;;4.10;82.00;;;;;;4997812;28;20503;-64
2021/12/19 10:45:35;;;;;;;3.83;2.37;;;3.70;83.70;;;;;;4998161;28;20477;-66
2021/12/19 10:48:26;;;;;;;4.47;2.67;;;3.70;84.90;;;;;;4997624;28;20931;-64
2021/12/19 10:50:56;;;;;;;3.03;1.83;;;3.90;84.50;;;;;;4997716;28;20802;-64
2021/12/19 10:53:30;;;;;;;3.40;1.90;;;4.00;84.10;;;;;;4998112;28;20493;-65
2021/12/19 10:55:57;;;;;;;3.50;2.10;;;4.20;83.90;;;;;;4997869;28;20523;-65
2021/12/19 10:58:32;;;;;;;5.00;2.30;;;4.30;83.50;;;;;;4997910;28;20445;-65
2021/12/19 11:01:13;;;;;;;3.93;2.20;;;4.40;83.10;;;;;;4998103;28;20465;-65
2021/12/19 11:03:44;;;;;;;3.60;2.03;;;4.50;82.60;;;;;;4997900;28;20474;-65
2021/12/19 11:06:16;;;;;;;3.80;1.77;;;4.50;82.30;;;;;;4997770;28;20475;-66
2021/12/19 11:08:45;;;;;;;3.57;1.70;;;4.60;82.50;;;;;;4997661;28;20820;-65
2021/12/19 11:11:12;;;;;;;3.60;2.10;;;4.60;82.10;;;;;;4997547;28;20444;-66
2021/12/19 11:13:40;;;;;;;3.63;2.17;;;4.70;82.10;;;;;;4997366;28;20862;-66
2021/12/19 11:16:07;;;;;;;3.17;1.53;;;4.60;81.50;;;;;;4997415;28;20543;-66
2021/12/19 11:18:34;;;;;;;3.23;1.90;;;4.60;82.00;;;;;;4997523;28;20453;-65
2021/12/19 11:21:01;;;;;;;3.83;2.40;;;4.70;81.70;;;;;;4997447;28;20473;-66
2021/12/19 11:23:28;;;;;;;4.27;2.33;;;4.70;81.50;;;;;;4997322;28;20477;-65
2021/12/19 11:25:56;;;;;;;4.67;2.40;;;4.90;81.60;;;;;;4997233;28;20572;-65
2021/12/19 11:28:23;;;;;;;4.37;2.70;;;4.90;81.30;;;;;;4997305;28;20441;-66
2021/12/19 11:30:53;;;;;;;3.73;2.30;;;4.90;81.30;;;;;;4996896;28;20957;-65
2021/12/19 11:33:41;;;;;;;5.20;2.80;;;4.80;81.20;;;;;;4997270;28;20504;-65
2021/12/19 11:36:09;;;;;;;4.40;2.10;;;4.60;81.10;;;;;;4997204;28;20477;-65
2021/12/19 11:38:38;;;;;;;4.40;2.47;;;4.40;81.90;;;;;;4997280;28;20527;-66
2021/12/19 11:41:09;;;;;;;3.93;2.07;;;4.40;82.40;;;;;;4996622;28;20995;-65
2021/12/19 11:43:38;;;;;;;3.30;1.93;;;4.30;82.60;;;;;;4996419;28;20548;-66
2021/12/19 11:46:13;;;;;;;2.93;1.90;;;4.50;82.60;;;;;;4996856;28;20529;-66
2021/12/19 11:48:39;;;;;;;3.07;1.77;;;4.60;82.30;;;;;;4996759;28;20473;-65
2021/12/19 11:51:08;;;;;;;3.00;2.10;;;4.40;82.20;;;;;;4996883;28;20544;-66
2021/12/19 11:53:39;;;;;;;3.53;1.83;;;4.40;83.20;;;;;;4996791;28;20445;-66
2021/12/19 11:56:10;;;;;;;3.87;2.10;;;4.50;83.00;;;;;;4997222;28;20473;-65
2021/12/19 11:58:45;;;;;;;3.37;2.00;;;4.40;82.50;;;;;;4997380;28;20864;-66
2021/12/19 12:01:15;;;;;;;4.70;2.33;;;4.30;83.00;;;;;;4997179;28;20465;-66
2021/12/19 12:03:57;;;;;;;3.80;2.00;;;4.30;83.10;;;;;;4996961;28;20484;-66
2021/12/19 12:06:42;;;;;;;3.90;2.20;;;4.30;83.20;;;;;;4996565;28;20469;-65
2021/12/19 12:09:15;;;;;;;4.30;2.57;;;4.40;82.80;;;;;;4996769;28;20448;-66
2021/12/19 12:12:11;;;;;;;4.20;2.20;;;4.50;83.10;;;;;;4996054;28;20893;-66
2021/12/19 12:14:41;;;;;;;3.73;2.10;;;4.50;82.60;;;;;;4996349;28;20441;-66
2021/12/19 12:17:15;;;;;;;4.10;2.00;;;4.60;82.70;;;;;;4995856;28;20442;-66
2021/12/19 12:19:43;;;;;;;4.30;2.30;;;4.40;82.70;;;;;;4996423;28;20507;-66
2021/12/19 12:22:36;;;;;;;3.40;2.40;;;4.50;82.80;;;;;;4995570;28;20492;-65
2021/12/19 12:25:30;;;;;;;3.83;2.17;;;4.60;83.10;;;;;;4996168;28;20469;-66
2021/12/19 12:28:03;;;;;;;4.30;1.97;;;4.70;82.80;;;;;;4996132;28;20432;-65
2021/12/19 12:30:32;;;;;;;3.40;1.93;;;4.80;82.30;;;;;;4996157;28;20453;-66
2021/12/19 12:33:02;;;;;;;4.93;2.03;;;4.80;82.30;;;;;;4996173;28;20555;-65
2021/12/19 12:35:31;;;;;;;3.07;1.40;;;4.90;81.60;;;;;;4995827;28;20495;-66
2021/12/19 12:37:59;;;;;;;3.20;1.87;;;4.70;81.70;;;;;;4995763;28;21025;-66
2021/12/19 12:40:29;;;;;;;3.67;2.30;;;4.60;82.00;;;;;;4995863;28;20453;-66
2021/12/19 12:43:02;;;;;;;3.00;1.87;;;4.60;82.30;;;;;;4995667;28;20517;-65
2021/12/19 12:45:31;;;;;;;2.90;1.57;;;4.70;82.20;;;;;;4995409;28;20464;-66
2021/12/19 12:47:59;;;;;;;4.00;2.40;;;4.50;81.70;;;;;;4995608;28;20535;-66
2021/12/19 12:50:27;;;;;;;6.67;3.20;;;4.50;82.10;;;;;;4995640;28;20468;-66
2021/12/19 12:52:58;;;;;;;3.37;2.07;;;4.40;81.90;;;;;;4995267;28;20553;-65
2021/12/19 12:55:24;;;;;;;8.43;3.07;;;4.30;82.40;;;;;;4995481;28;20472;-66
2021/12/19 12:57:56;;;;;;;3.30;2.27;;;4.20;82.90;;;;;;4995984;28;20453;-66
2021/12/19 13:00:26;;;;;;;3.33;2.30;;;4.20;83.40;;;;;;4995622;28;20561;-65
2021/12/19 13:03:09;;;;;;;3.63;2.53;;;4.20;83.20;;;;;;4995229;28;20556;-66
2021/12/19 13:05:37;;;;;;;3.10;2.00;;;3.90;83.60;;;;;;4996138;28;20473;-65
2021/12/19 13:08:04;;;;;;;3.87;2.27;;;3.90;84.80;;;;;;4995474;28;20572;-66
2021/12/19 13:10:31;;;;;;;3.30;2.10;;;4.00;85.00;;;;;;4995432;28;20445;-65
2021/12/19 13:12:57;;;;;;;3.93;2.33;;;4.20;84.90;;;;;;4995433;28;20445;-66
2021/12/19 13:15:24;;;;;;;3.30;2.00;;;4.40;84.10;;;;;;4995470;28;20543;-66
2021/12/19 13:17:52;;;;;;;3.33;2.07;;;4.50;83.80;;;;;;4995940;28;20445;-66
2021/12/19 13:20:20;;;;;;;5.67;2.60;;;4.60;83.20;;;;;;4995181;28;21018;-66
2021/12/19 13:22:50;;;;;;;6.00;2.23;;;4.70;82.20;;;;;;4994735;28;20559;-66
2021/12/19 13:25:18;;;;;;;3.37;2.10;;;4.70;81.40;;;;;;4993936;28;20472;-66
2021/12/19 13:27:47;;;;;;;7.40;2.90;;;4.60;81.80;;;;;;4994530;28;20453;-65
2021/12/19 13:30:17;;;;;;;13.43;3.53;;;4.40;81.80;;;;;;4994299;28;20445;-66
2021/12/19 13:32:46;;;;;;;4.57;2.43;;;4.20;82.70;;;;;;4994413;28;20999;-66
2021/12/19 13:35:22;;;;;;;5.00;2.40;;;3.90;83.90;;;;;;4994227;28;20469;-65
2021/12/19 13:37:57;;;;;;;4.90;2.63;;;3.80;84.50;;;;;;4994378;28;20433;-65
2021/12/19 13:40:25;;;;;;;4.07;2.40;;;3.60;85.50;;;;;;4994173;28;20433;-65
2021/12/19 13:42:54;;;;;;;4.57;2.83;;;3.70;86.00;;;;;;4994156;28;20514;-65
2021/12/19 13:45:32;;;;;;;5.10;2.50;;;3.90;85.60;;;;;;4994125;28;20527;-65
2021/12/19 13:48:01;;;;;;;3.70;2.70;;;4.00;85.50;;;;;;4994270;28;20889;-65
2021/12/19 13:50:30;;;;;;;3.57;2.30;;;4.10;84.70;;;;;;4994162;28;20457;-66
2021/12/19 13:52:58;;;;;;;3.57;2.40;;;4.20;84.50;;;;;;4993989;28;20519;-65
2021/12/19 13:55:25;;;;;;;3.30;2.17;;;4.40;84.00;;;;;;4994073;28;20468;-66
2021/12/19 13:58:04;;;;;;;4.67;2.63;;;4.40;83.30;;;;;;4994241;28;20449;-66
2021/12/19 14:00:33;;;;;;;5.33;2.73;;;4.40;83.40;;;;;;4994372;28;20436;-67
2021/12/19 14:03:01;;;;;;;4.20;2.90;;;4.40;83.20;;;;;;4993970;28;20515;-65
2021/12/19 14:05:34;;;;;;;4.43;3.30;;;4.50;83.40;;;;;;4994421;28;20980;-65
2021/12/19 14:08:21;;;;;;;3.73;2.50;;;4.50;83.10;;;;;;4997698;28;20857;-65
2021/12/19 14:11:04;;;;;;;4.87;2.97;;;4.60;83.10;;;;;;4998033;28;20433;-66
2021/12/19 14:13:33;;;;;;;3.33;2.40;;;4.70;83.00;;;;;;4997975;28;20425;-66
2021/12/19 14:16:01;;;;;;;4.07;2.70;;;4.70;82.90;;;;;;4997749;28;20516;-65
2021/12/19 14:18:29;;;;;;;4.30;2.30;;;4.80;82.70;;;;;;4997946;28;20456;-66
2021/12/19 14:20:56;;;;;;;3.97;2.60;;;4.90;82.40;;;;;;4997943;28;20449;-66
2021/12/19 14:23:25;;;;;;;4.37;2.50;;;5.00;82.20;;;;;;4997711;28;20456;-65
2021/12/19 14:25:52;;;;;;;3.30;2.27;;;5.10;81.80;;;;;;4997829;28;20472;-65
2021/12/19 14:28:22;;;;;;;3.57;2.37;;;5.10;82.00;;;;;;4997573;28;20940;-66
2021/12/19 14:31:01;;;;;;;4.10;2.10;;;5.10;81.60;;;;;;4997635;28;20476;-65
2021/12/19 14:33:33;;;;;;;4.53;2.30;;;5.10;81.30;;;;;;4997770;28;20495;-66
2021/12/19 14:36:01;;;;;;;4.40;2.80;;;5.00;81.30;;;;;;4997413;28;21003;-65
2021/12/19 14:38:29;;;;;;;3.50;2.60;;;4.60;82.00;;;;;;4997598;28;20868;-65
2021/12/19 14:41:01;;;;;;;3.90;2.40;;;4.60;82.70;;;;;;4997545;28;20449;-66
2021/12/19 14:43:31;;;;;;;3.93;2.93;;;4.60;83.00;;;;;;4997237;28;20542;-66
2021/12/19 14:46:01;;;;;;;3.00;2.27;;;4.50;83.20;;;;;;4997392;28;20469;-66
2021/12/19 14:48:33;;;;;;;4.00;2.40;;;4.60;83.50;;;;;;4997365;28;20475;-67
2021/12/19 14:51:01;;;;;;;4.00;2.87;;;4.60;83.30;;;;;;4997437;28;20457;-66
2021/12/19 14:53:31;;;;;;;3.27;2.33;;;4.70;83.20;;;;;;4997615;28;20449;-66
2021/12/19 14:56:00;;;;;;;3.10;2.47;;;4.70;83.10;;;;;;4997160;28;20520;-67
2021/12/19 14:58:28;;;;;;;4.07;2.67;;;4.80;83.10;;;;;;4997185;28;21019;-67
2021/12/19 15:00:58;;;;;;;3.60;2.20;;;4.90;82.90;;;;;;4997444;28;20444;-66
2021/12/19 15:03:26;;;;;;;3.60;2.23;;;5.00;82.70;;;;;;4997251;28;20480;-66
2021/12/19 15:05:53;;;;;;;4.17;2.80;;;5.00;82.40;;;;;;4997382;28;20526;-66
2021/12/19 15:08:25;;;;;;;3.57;2.33;;;5.00;82.20;;;;;;4997101;28;20460;-66
2021/12/19 15:10:55;;;;;;;5.90;3.00;;;5.10;82.30;;;;;;4996791;28;20921;-66
2021/12/19 15:13:21;;;;;;;3.50;2.53;;;5.10;82.00;;;;;;4996984;28;20448;-66
2021/12/19 15:15:48;;;;;;;3.87;3.20;;;5.10;81.80;;;;;;4996522;28;20903;-66
2021/12/19 15:18:15;;;;;;;4.10;2.80;;;5.10;82.00;;;;;;4996199;28;20876;-66
2021/12/19 15:20:42;;;;;;;3.70;2.60;;;5.10;82.00;;;;;;4997142;28;20445;-66
2021/12/19 15:23:09;;;;;;;3.50;2.87;;;5.20;81.80;;;;;;4996755;28;20480;-66
2021/12/19 15:25:36;;;;;;;3.63;2.30;;;5.10;81.10;;;;;;4996579;28;20496;-66
2021/12/19 15:28:04;;;;;;;4.60;3.20;;;5.00;81.50;;;;;;4996883;28;20449;-66
2021/12/19 15:30:31;;;;;;;3.90;2.40;;;5.00;81.70;;;;;;4996907;28;20449;-67
2021/12/19 15:32:58;;;;;;;5.17;3.27;;;4.90;82.10;;;;;;4996598;28;20437;-66
2021/12/19 15:35:25;;;;;;;5.17;3.10;;;4.70;82.40;;;;;;4996189;28;20846;-67
2021/12/19 15:37:51;;;;;;;4.20;3.20;;;4.70;82.90;;;;;;4996796;28;20516;-66
2021/12/19 15:40:19;;;;;;;4.93;3.53;;;4.70;82.90;;;;;;4996760;28;20453;-67
2021/12/19 15:42:46;;;;;;;5.60;3.50;;;4.50;83.40;;;;;;4996701;28;20473;-66
2021/12/19 15:45:14;;;;;;;4.40;3.10;;;4.50;83.60;;;;;;4996008;28;20988;-66
2021/12/19 15:47:41;;;;;;;6.97;3.80;;;4.60;83.60;;;;;;4996516;28;20453;-66
2021/12/19 15:50:09;;;;;;;4.50;3.00;;;4.60;83.90;;;;;;4996329;28;20457;-66
2021/12/19 15:52:36;;;;;;;5.50;3.80;;;4.70;83.80;;;;;;4995892;28;20453;-67
2021/12/19 15:55:06;;;;;;;4.50;3.23;;;4.80;83.60;;;;;;4995998;28;20524;-66
2021/12/19 15:57:33;;;;;;;4.40;3.40;;;4.80;83.30;;;;;;4995746;28;20437;-66
2021/12/19 16:00:00;;;;;;;5.37;3.37;;;4.70;83.20;;;;;;4996010;28;20527;-68
2021/12/19 16:02:28;;;;;;;5.33;3.80;;;4.70;83.10;;;;;;4995944;28;20481;-68
2021/12/19 16:04:54;;;;;;;5.37;4.07;;;4.70;83.10;;;;;;4995888;28;20523;-66
2021/12/19 16:07:21;;;;;;;6.23;4.47;;;4.80;83.30;;;;;;4995684;28;20453;-66
2021/12/19 16:09:49;;;;;;;4.53;3.50;;;4.80;82.80;;;;;;4995889;28;20496;-67
2021/12/19 16:12:15;;;;;;;4.47;3.37;;;4.80;82.90;;;;;;4995719;28;20870;-66
2021/12/19 16:14:48;;;;;;;3.83;2.50;;;4.90;82.50;;;;;;4996608;28;21056;-66
2021/12/19 16:17:15;;;;;;;3.97;3.30;;;4.90;82.30;;;;;;4995680;28;20460;-67
2021/12/19 16:19:43;;;;;;;4.73;3.00;;;5.00;82.20;;;;;;4995764;28;20445;-66
2021/12/19 16:22:10;;;;;;;4.07;2.80;;;5.00;81.80;;;;;;4995496;28;20532;-68
2021/12/19 16:24:37;;;;;;;3.37;2.43;;;4.90;81.70;;;;;;4995697;28;20527;-68
2021/12/19 16:27:05;;;;;;;4.17;2.70;;;4.90;81.40;;;;;;4995780;28;20508;-67
2021/12/19 16:29:32;;;;;;;3.17;2.30;;;4.90;81.10;;;;;;4995144;28;20453;-67
2021/12/19 16:31:59;;;;;;;3.50;2.43;;;4.90;81.10;;;;;;4995659;28;20445;-67
2021/12/19 16:34:27;;;;;;;4.40;2.73;;;4.90;81.10;;;;;;4995519;28;20453;-68
2021/12/19 16:36:56;;;;;;;4.50;3.00;;;4.90;81.00;;;;;;4995680;28;20452;-66
2021/12/19 16:39:23;;;;;;;5.03;3.90;;;4.90;81.30;;;;;;4995489;28;20453;-67
2021/12/19 16:42:01;;;;;;;6.77;4.13;;;4.90;81.30;;;;;;4995373;28;20457;-66
2021/12/19 16:44:28;;;;;;;5.10;3.60;;;4.80;81.80;;;;;;4995584;28;20433;-66
2021/12/19 16:46:56;;;;;;;5.00;3.87;;;4.90;81.90;;;;;;4995707;28;20448;-69
2021/12/19 16:49:23;;;;;;;4.10;3.13;;;4.90;82.10;;;;;;4995937;28;20536;-69
2021/12/19 16:51:50;;;;;;;4.67;3.83;;;5.00;82.20;;;;;;4996890;28;20856;-68
2021/12/19 16:54:21;;;;;;;6.20;3.60;;;5.00;82.20;;;;;;4996089;28;20481;-69
2021/12/19 16:56:49;;;;;;;5.33;3.83;;;5.00;82.00;;;;;;4997648;28;20470;-69
2021/12/19 16:59:15;;;;;;;5.93;3.83;;;5.00;81.90;;;;;;4997492;28;20457;-68
2021/12/19 17:01:44;;;;;;;5.57;4.27;;;4.90;81.90;;;;;;4997247;28;20504;-69
2021/12/19 17:04:12;;;;;;;6.07;5.47;;;4.80;82.20;;;;;;4997306;28;20531;-69
2021/12/19 17:06:39;;;;;;;7.77;4.10;;;4.70;82.20;;;;;;4997438;28;20527;-68
2021/12/19 17:09:06;;;;;;;4.43;3.23;;;4.60;82.30;;;;;;4997209;28;20516;-68
2021/12/19 17:11:36;;;;;;;5.70;4.30;;;4.60;82.40;;;;;;4996873;28;20930;-69
2021/12/19 17:14:08;;;;;;;4.90;3.80;;;4.60;82.60;;;;;;4996594;28;20453;-69
2021/12/19 17:16:37;;;;;;;5.40;4.13;;;4.60;82.60;;;;;;4996668;28;20488;-66
2021/12/19 17:19:04;;;;;;;5.00;4.10;;;4.60;82.30;;;;;;4995821;28;20817;-68
2021/12/19 17:21:31;;;;;;;5.03;3.93;;;4.60;82.60;;;;;;4995134;28;20866;-70
2021/12/19 17:23:58;;;;;;;5.13;3.80;;;4.70;82.30;;;;;;4996748;28;20484;-68
2021/12/19 17:26:25;;;;;;;4.00;2.50;;;4.60;81.70;;;;;;4997284;28;20512;-68
2021/12/19 17:28:53;;;;;;;4.80;3.60;;;4.30;82.70;;;;;;4996682;28;20492;-68
2021/12/19 17:31:20;;;;;;;5.73;4.27;;;4.30;83.30;;;;;;4996468;28;20441;-69
2021/12/19 17:33:50;;;;;;;6.10;4.93;;;4.40;83.10;;;;;;4996269;28;20501;-68
2021/12/19 17:36:17;;;;;;;5.50;4.70;;;4.40;83.30;;;;;;4995811;28;20976;-68
2021/12/19 17:38:44;;;;;;;4.80;3.73;;;4.50;83.30;;;;;;4996121;28;20451;-68
2021/12/19 17:41:11;;;;;;;5.30;3.60;;;4.50;83.20;;;;;;4995498;28;20449;-68